createdAt,value
2017-10-19T00:01:48.170Z,12.30
2017-10-19T00:04:15.575Z,12.37
2017-10-19T00:06:42.962Z,12.25
2017-10-19T00:09:10.364Z,12.20
2017-10-19T00:11:37.858Z,12.18
2017-10-19T00:14:05.258Z,12.28
2017-10-19T00:16:32.671Z,12.34
2017-10-19T00:19:00.089Z,12.39
2017-10-19T00:21:27.579Z,12.47
2017-10-19T00:23:54.976Z,12.48
2017-10-19T00:26:22.376Z,12.51
2017-10-19T00:28:49.778Z,12.55
2017-10-19T00:31:17.189Z,12.54
2017-10-19T00:33:44.669Z,12.50
2017-10-19T00:36:12.071Z,12.42
2017-10-19T00:38:39.463Z,12.42
2017-10-19T00:41:06.863Z,12.38
2017-10-19T00:43:34.249Z,12.34
2017-10-19T00:46:01.654Z,12.29
2017-10-19T00:48:29.051Z,12.27
2017-10-19T00:50:56.455Z,12.18
2017-10-19T00:53:23.872Z,12.14
2017-10-19T00:55:51.387Z,12.13
2017-10-19T00:58:18.771Z,12.08
2017-10-19T01:00:46.172Z,12.16
2017-10-19T01:03:13.557Z,12.18
2017-10-19T01:05:40.954Z,12.07
2017-10-19T01:08:08.438Z,12.12
2017-10-19T01:10:35.835Z,12.09
2017-10-19T01:13:03.230Z,12.10
2017-10-19T01:15:30.628Z,12.20
2017-10-19T01:17:58.027Z,12.14
2017-10-19T01:20:25.424Z,12.11
2017-10-19T01:22:52.823Z,12.03
2017-10-19T01:25:20.220Z,12.04
2017-10-19T01:27:47.695Z,12.10
2017-10-19T01:30:15.090Z,12.02
2017-10-19T01:32:42.486Z,11.85
2017-10-19T01:35:09.879Z,11.69
2017-10-19T01:37:37.279Z,11.78
2017-10-19T01:40:04.671Z,11.75
2017-10-19T01:42:32.084Z,11.77
2017-10-19T01:44:59.487Z,11.84
2017-10-19T01:47:26.876Z,11.81
2017-10-19T01:50:00.241Z,11.79
2017-10-19T01:52:27.637Z,11.77
2017-10-19T01:54:55.031Z,11.76
2017-10-19T01:57:22.429Z,11.77
2017-10-19T01:59:49.842Z,11.83
2017-10-19T02:02:17.247Z,11.88
2017-10-19T02:04:44.754Z,11.97
2017-10-19T02:07:12.171Z,12.00
2017-10-19T02:09:39.619Z,12.09
2017-10-19T02:12:07.125Z,12.20
2017-10-19T02:14:34.514Z,12.31
2017-10-19T02:17:01.915Z,12.40
2017-10-19T02:19:29.318Z,12.22
2017-10-19T02:21:56.713Z,12.23
2017-10-19T02:24:24.112Z,12.30
2017-10-19T02:26:51.546Z,12.40
2017-10-19T02:29:19.006Z,12.36
2017-10-19T02:31:46.402Z,12.26
2017-10-19T02:34:13.812Z,12.39
2017-10-19T02:36:41.207Z,12.37
2017-10-19T02:39:08.626Z,12.25
2017-10-19T02:41:36.018Z,12.26
2017-10-19T02:44:03.447Z,12.29
2017-10-19T02:46:30.855Z,11.99
2017-10-19T02:48:58.251Z,12.12
2017-10-19T02:51:25.715Z,12.02
2017-10-19T02:53:53.107Z,12.16
2017-10-19T02:56:20.618Z,12.16
2017-10-19T02:58:48.019Z,12.22
2017-10-19T03:01:15.433Z,12.24
2017-10-19T03:03:42.830Z,12.23
2017-10-19T03:06:10.247Z,12.29
2017-10-19T03:08:37.642Z,12.36
2017-10-19T03:11:05.057Z,12.41
2017-10-19T03:13:32.466Z,12.42
2017-10-19T03:15:59.965Z,12.35
2017-10-19T03:18:27.363Z,12.25
2017-10-19T03:20:54.762Z,12.15
2017-10-19T03:23:22.163Z,12.12
2017-10-19T03:25:49.566Z,12.05
2017-10-19T03:28:16.963Z,11.86
2017-10-19T03:30:44.366Z,11.93
2017-10-19T03:33:11.762Z,11.86
2017-10-19T03:35:39.186Z,11.99
2017-10-19T03:38:06.586Z,12.01
2017-10-19T03:40:33.983Z,11.86
2017-10-19T03:43:01.427Z,11.63
2017-10-19T03:45:28.831Z,11.57
2017-10-19T03:47:56.238Z,11.59
2017-10-19T03:50:23.626Z,11.73
2017-10-19T03:52:51.030Z,11.84
2017-10-19T03:55:18.426Z,11.99
2017-10-19T03:57:45.832Z,11.93
2017-10-19T04:00:13.230Z,11.98
2017-10-19T04:02:40.649Z,11.76
2017-10-19T04:05:08.042Z,11.75
2017-10-19T04:07:35.513Z,11.58
2017-10-19T04:10:02.905Z,11.48
2017-10-19T04:12:30.347Z,11.48
2017-10-19T04:14:57.746Z,11.31
2017-10-19T04:17:25.259Z,11.46
2017-10-19T04:19:52.650Z,11.58
2017-10-19T04:22:20.077Z,11.44
2017-10-19T04:24:47.467Z,11.65
2017-10-19T04:27:14.891Z,11.68
2017-10-19T04:29:42.282Z,11.55
2017-10-19T04:32:09.682Z,11.55
2017-10-19T04:34:37.082Z,11.44
2017-10-19T04:37:04.487Z,11.53
2017-10-19T04:39:31.890Z,11.58
2017-10-19T04:42:00.938Z,11.73
2017-10-19T04:44:28.338Z,11.57
2017-10-19T04:46:55.747Z,11.56
2017-10-19T04:49:23.151Z,11.63
2017-10-19T04:51:50.547Z,11.53
2017-10-19T04:54:17.953Z,11.28
2017-10-19T04:56:45.355Z,11.38
2017-10-19T04:59:12.762Z,11.54
2017-10-19T05:01:40.179Z,11.74
2017-10-19T05:04:07.651Z,11.82
2017-10-19T05:06:35.047Z,11.75
2017-10-19T05:09:02.466Z,11.81
2017-10-19T05:11:29.866Z,11.70
2017-10-19T05:13:57.278Z,11.89
2017-10-19T05:16:24.683Z,11.60
2017-10-19T05:18:52.098Z,11.36
2017-10-19T05:21:19.495Z,11.37
2017-10-19T05:23:46.919Z,11.23
2017-10-19T05:26:14.336Z,11.24
2017-10-19T05:28:41.723Z,11.11
2017-10-19T05:31:09.135Z,11.04
2017-10-19T05:33:36.571Z,11.02
2017-10-19T05:36:03.996Z,11.04
2017-10-19T05:38:31.398Z,11.23
2017-10-19T05:40:59.603Z,11.32
2017-10-19T05:43:26.998Z,11.31
2017-10-19T05:45:54.402Z,11.09
2017-10-19T05:48:21.874Z,11.27
2017-10-19T05:50:49.283Z,11.28
2017-10-19T05:53:16.683Z,11.17
2017-10-19T05:55:44.086Z,11.07
2017-10-19T05:58:11.488Z,10.93
2017-10-19T06:00:38.959Z,10.99
2017-10-19T06:03:06.355Z,11.15
2017-10-19T06:05:33.758Z,11.13
2017-10-19T06:08:01.150Z,11.24
2017-10-19T06:10:28.550Z,11.40
2017-10-19T06:12:56.043Z,11.19
2017-10-19T06:15:23.452Z,10.96
2017-10-19T06:17:50.957Z,10.87
2017-10-19T06:20:18.357Z,10.89
2017-10-19T06:22:45.770Z,10.82
2017-10-19T06:25:13.194Z,10.89
2017-10-19T06:27:40.685Z,10.75
2017-10-19T06:30:08.094Z,10.83
2017-10-19T06:32:35.513Z,10.83
2017-10-19T06:35:02.907Z,10.99
2017-10-19T06:37:30.311Z,11.08
2017-10-19T06:39:57.712Z,11.09
2017-10-19T06:42:25.113Z,11.32
2017-10-19T06:44:52.518Z,11.40
2017-10-19T06:47:19.926Z,11.48
2017-10-19T06:49:47.372Z,11.43
2017-10-19T06:52:14.774Z,11.41
2017-10-19T06:54:42.195Z,11.58
2017-10-19T06:57:09.602Z,11.56
2017-10-19T06:59:36.999Z,11.58
2017-10-19T07:02:04.425Z,11.53
2017-10-19T07:04:31.826Z,11.42
2017-10-19T07:06:59.232Z,11.43
2017-10-19T07:09:26.626Z,11.27
2017-10-19T07:11:54.022Z,11.06
2017-10-19T07:14:21.418Z,10.98
2017-10-19T07:16:48.822Z,11.14
2017-10-19T07:19:16.222Z,11.30
2017-10-19T07:21:43.631Z,11.19
2017-10-19T07:24:11.029Z,11.29
2017-10-19T07:26:38.431Z,11.39
2017-10-19T07:29:05.834Z,11.54
2017-10-19T07:31:33.235Z,11.51
2017-10-19T07:34:00.631Z,11.67
2017-10-19T07:36:28.039Z,11.91
2017-10-19T07:38:55.439Z,11.95
2017-10-19T07:41:22.846Z,12.06
2017-10-19T07:43:50.252Z,12.04
2017-10-19T07:46:17.659Z,11.87
2017-10-19T07:48:45.062Z,11.93
2017-10-19T07:51:12.526Z,11.83
2017-10-19T07:53:39.922Z,11.89
2017-10-19T07:56:07.337Z,11.83
2017-10-19T07:58:34.730Z,11.89
2017-10-19T08:01:02.138Z,11.95
2017-10-19T08:03:29.534Z,11.97
2017-10-19T08:05:56.986Z,12.12
2017-10-19T08:08:24.384Z,12.36
2017-10-19T08:10:51.786Z,12.42
2017-10-19T08:13:19.186Z,12.30
2017-10-19T08:15:46.632Z,12.30
2017-10-19T08:18:14.011Z,12.28
2017-10-19T08:20:41.419Z,12.29
2017-10-19T08:23:08.818Z,12.46
2017-10-19T08:25:36.208Z,12.47
2017-10-19T08:28:03.603Z,12.54
2017-10-19T08:30:30.995Z,12.51
2017-10-19T08:32:58.400Z,12.47
2017-10-19T08:35:25.818Z,12.64
2017-10-19T08:37:53.218Z,12.80
2017-10-19T08:40:20.612Z,12.87
2017-10-19T08:42:48.015Z,12.90
2017-10-19T08:45:15.488Z,12.71
2017-10-19T08:47:42.886Z,12.77
2017-10-19T08:50:10.285Z,12.83
2017-10-19T08:52:37.687Z,12.84
2017-10-19T08:55:07.482Z,12.89
2017-10-19T08:57:34.890Z,12.80
2017-10-19T09:00:02.289Z,12.66
2017-10-19T09:02:29.699Z,12.76
2017-10-19T09:04:57.158Z,12.84
2017-10-19T09:07:24.561Z,12.95
2017-10-19T09:09:52.006Z,13.12
2017-10-19T09:12:19.406Z,13.34
2017-10-19T09:14:46.798Z,13.50
2017-10-19T09:17:14.198Z,13.60
2017-10-19T09:19:41.594Z,13.71
2017-10-19T09:22:08.989Z,13.46
2017-10-19T09:24:36.383Z,13.50
2017-10-19T09:27:03.775Z,13.53
2017-10-19T09:29:31.183Z,13.66
2017-10-19T09:31:58.575Z,13.87
2017-10-19T09:34:25.974Z,14.03
2017-10-19T09:36:53.380Z,14.15
2017-10-19T09:39:20.783Z,14.45
2017-10-19T09:41:48.174Z,15.20
2017-10-19T09:44:15.575Z,15.80
2017-10-19T09:46:42.972Z,16.71
2017-10-19T09:49:10.486Z,17.48
2017-10-19T09:51:37.882Z,17.78
2017-10-19T09:54:05.283Z,18.54
2017-10-19T09:56:32.681Z,18.99
2017-10-19T09:59:00.084Z,19.49
2017-10-19T10:01:27.479Z,19.44
2017-10-19T10:03:54.918Z,19.70
2017-10-19T10:06:22.303Z,20.14
2017-10-19T10:08:49.844Z,20.32
2017-10-19T10:11:17.239Z,20.15
2017-10-19T10:13:44.630Z,19.95
2017-10-19T10:16:12.030Z,19.74
2017-10-19T10:18:39.423Z,19.46
2017-10-19T10:21:06.817Z,19.89
2017-10-19T10:23:34.219Z,19.79
2017-10-19T10:26:01.615Z,19.64
2017-10-19T10:28:29.015Z,19.01
2017-10-19T10:30:56.434Z,18.82
2017-10-19T10:33:23.835Z,18.38
2017-10-19T10:35:51.450Z,18.21
2017-10-19T10:38:18.850Z,18.37
2017-10-19T10:40:46.257Z,18.50
2017-10-19T10:43:13.643Z,18.72
2017-10-19T10:45:41.043Z,18.48
2017-10-19T10:48:08.445Z,18.18
2017-10-19T10:50:36.015Z,18.40
2017-10-19T10:53:03.454Z,18.52
2017-10-19T10:55:30.858Z,18.42
2017-10-19T10:57:58.256Z,18.38
2017-10-19T11:00:25.655Z,18.33
2017-10-19T11:02:53.043Z,18.40
2017-10-19T11:05:20.446Z,18.48
2017-10-19T11:07:47.838Z,18.55
2017-10-19T11:10:15.230Z,18.68
2017-10-19T11:12:42.630Z,18.87
2017-10-19T11:15:10.037Z,19.18
2017-10-19T11:17:37.510Z,19.24
2017-10-19T11:20:04.904Z,19.25
2017-10-19T11:22:32.308Z,19.34
2017-10-19T11:24:59.698Z,19.22
2017-10-19T11:27:27.107Z,19.10
2017-10-19T11:29:54.587Z,19.20
2017-10-19T11:32:22.017Z,19.34
2017-10-19T11:34:49.412Z,19.25
2017-10-19T11:37:16.811Z,19.50
2017-10-19T11:39:44.197Z,19.60
2017-10-19T11:42:11.612Z,19.84
2017-10-19T11:44:39.002Z,19.98
2017-10-19T11:47:06.482Z,20.00
2017-10-19T11:49:33.883Z,19.94
2017-10-19T11:52:01.285Z,19.94
2017-10-19T11:54:28.678Z,19.94
2017-10-19T11:56:56.084Z,19.95
2017-10-19T11:59:23.482Z,19.83
2017-10-19T12:01:50.890Z,19.58
2017-10-19T12:04:18.375Z,19.64
2017-10-19T12:06:45.787Z,19.81
2017-10-19T12:09:13.183Z,20.01
2017-10-19T12:11:40.573Z,20.20
2017-10-19T12:14:07.976Z,20.29
2017-10-19T12:16:35.374Z,20.20
2017-10-19T12:19:02.772Z,20.48
2017-10-19T12:21:30.267Z,20.66
2017-10-19T12:23:57.666Z,20.89
2017-10-19T12:26:25.054Z,20.88
2017-10-19T12:28:52.462Z,21.06
2017-10-19T12:31:19.864Z,21.04
2017-10-19T12:33:47.266Z,21.17
2017-10-19T12:36:14.651Z,21.18
2017-10-19T12:38:42.066Z,21.18
2017-10-19T12:41:09.462Z,21.25
2017-10-19T12:43:36.870Z,21.28
2017-10-19T12:46:04.272Z,21.14
2017-10-19T12:48:31.671Z,21.21
2017-10-19T12:50:59.067Z,21.35
2017-10-19T12:53:26.467Z,21.27
2017-10-19T12:55:53.955Z,21.15
2017-10-19T12:58:21.360Z,21.14
2017-10-19T13:00:48.755Z,21.02
2017-10-19T13:03:16.154Z,20.87
2017-10-19T13:05:43.560Z,21.04
2017-10-19T13:08:10.956Z,21.10
2017-10-19T13:10:38.361Z,21.06
2017-10-19T13:13:05.751Z,20.90
2017-10-19T13:15:33.209Z,20.75
2017-10-19T13:18:00.603Z,20.79
2017-10-19T13:20:28.007Z,20.78
2017-10-19T13:22:55.399Z,20.76
2017-10-19T13:25:22.803Z,20.83
2017-10-19T13:27:50.287Z,20.90
2017-10-19T13:30:17.695Z,20.94
2017-10-19T13:32:45.107Z,21.02
2017-10-19T13:35:12.506Z,21.11
2017-10-19T13:37:39.923Z,20.83
2017-10-19T13:40:07.327Z,20.87
2017-10-19T13:42:34.722Z,20.93
2017-10-19T13:45:02.127Z,20.85
2017-10-19T13:47:29.522Z,20.84
2017-10-19T13:49:56.964Z,21.01
2017-10-19T13:52:24.459Z,21.03
2017-10-19T13:54:51.846Z,20.88
2017-10-19T13:57:19.242Z,20.83
2017-10-19T13:59:46.635Z,20.89
2017-10-19T14:02:14.047Z,20.96
2017-10-19T14:04:41.439Z,20.91
2017-10-19T14:07:08.847Z,20.98
2017-10-19T14:09:36.295Z,21.00
2017-10-19T14:12:03.814Z,21.04
2017-10-19T14:14:31.367Z,21.23
2017-10-19T14:16:58.775Z,21.21
2017-10-19T14:19:26.359Z,21.02
2017-10-19T14:21:53.751Z,20.98
2017-10-19T14:24:21.147Z,21.10
2017-10-19T14:26:48.545Z,20.86
2017-10-19T14:29:15.943Z,20.79
2017-10-19T14:31:43.342Z,20.95
2017-10-19T14:34:10.742Z,20.89
2017-10-19T14:36:38.126Z,21.05
2017-10-19T14:39:05.642Z,21.13
2017-10-19T14:41:33.035Z,20.99
2017-10-19T14:44:00.426Z,20.89
2017-10-19T14:46:27.854Z,20.79
2017-10-19T14:48:55.358Z,20.78
2017-10-19T14:51:22.759Z,20.70
2017-10-19T14:53:50.151Z,20.73
2017-10-19T14:56:17.615Z,20.57
2017-10-19T14:58:45.003Z,20.70
2017-10-19T15:01:12.398Z,20.49
2017-10-19T15:03:39.804Z,20.44
2017-10-19T15:06:07.211Z,20.49
2017-10-19T15:08:34.611Z,20.30
2017-10-19T15:11:02.002Z,20.26
2017-10-19T15:13:29.422Z,20.19
2017-10-19T15:15:56.814Z,20.22
2017-10-19T15:18:24.220Z,20.07
2017-10-19T15:20:51.695Z,19.92
2017-10-19T15:23:19.147Z,19.84
2017-10-19T15:25:46.606Z,19.69
2017-10-19T15:28:13.999Z,19.54
2017-10-19T15:30:41.403Z,19.53
2017-10-19T15:33:08.886Z,19.42
2017-10-19T15:35:36.279Z,19.35
2017-10-19T15:38:03.692Z,19.18
2017-10-19T15:40:31.087Z,19.38
2017-10-19T15:42:58.498Z,19.32
2017-10-19T15:45:25.920Z,19.23
2017-10-19T15:47:53.324Z,19.42
2017-10-19T15:50:20.718Z,19.29
2017-10-19T15:52:48.122Z,19.23
2017-10-19T15:55:15.510Z,19.20
2017-10-19T15:57:42.934Z,19.16
2017-10-19T16:00:10.331Z,18.83
2017-10-19T16:02:37.724Z,18.75
2017-10-19T16:05:05.134Z,18.67
2017-10-19T16:07:32.522Z,18.39
2017-10-19T16:09:59.940Z,18.36
2017-10-19T16:12:27.389Z,18.37
2017-10-19T16:14:54.826Z,18.34
2017-10-19T16:17:22.228Z,18.38
2017-10-19T16:19:49.637Z,18.32
2017-10-19T16:22:17.030Z,18.35
2017-10-19T16:24:44.434Z,18.35
2017-10-19T16:27:11.831Z,18.46
2017-10-19T16:29:39.237Z,18.52
2017-10-19T16:32:06.630Z,18.56
2017-10-19T16:34:34.040Z,18.52
2017-10-19T16:37:01.426Z,18.38
2017-10-19T16:39:28.871Z,18.24
2017-10-19T16:41:56.279Z,18.08
2017-10-19T16:44:23.682Z,18.05
2017-10-19T16:46:51.083Z,17.96
2017-10-19T16:49:18.582Z,17.78
2017-10-19T16:51:46.075Z,17.72
2017-10-19T16:54:13.559Z,17.48
2017-10-19T16:56:40.955Z,17.52
2017-10-19T16:59:08.356Z,17.56
2017-10-19T17:01:35.812Z,17.30
2017-10-19T17:04:03.203Z,17.25
2017-10-19T17:06:30.603Z,17.20
2017-10-19T17:08:58.633Z,16.94
2017-10-19T17:11:26.058Z,16.88
2017-10-19T17:13:53.825Z,17.01
2017-10-19T17:16:21.230Z,17.02
2017-10-19T17:18:48.884Z,16.96
2017-10-19T17:21:16.302Z,16.89
2017-10-19T17:23:43.694Z,16.80
2017-10-19T17:26:11.183Z,16.78
2017-10-19T17:28:38.572Z,16.72
2017-10-19T17:31:05.970Z,16.68
2017-10-19T17:33:33.496Z,16.60
2017-10-19T17:36:00.891Z,16.46
2017-10-19T17:38:28.278Z,16.55
2017-10-19T17:40:55.725Z,16.53
2017-10-19T17:43:23.120Z,16.54
2017-10-19T17:45:50.523Z,16.42
2017-10-19T17:48:17.919Z,16.30
2017-10-19T17:50:45.432Z,16.18
2017-10-19T17:53:12.831Z,16.15
2017-10-19T17:55:40.261Z,16.09
2017-10-19T17:58:07.712Z,15.84
2017-10-19T18:00:35.107Z,15.89
2017-10-19T18:03:02.576Z,15.95
2017-10-19T18:05:30.610Z,15.97
2017-10-19T18:07:58.039Z,15.81
2017-10-19T18:10:25.435Z,15.75
2017-10-19T18:12:52.838Z,15.77
2017-10-19T18:15:20.267Z,15.79
2017-10-19T18:17:47.660Z,15.82
2017-10-19T18:20:15.050Z,15.80
2017-10-19T18:22:42.462Z,15.62
2017-10-19T18:25:09.883Z,15.55
2017-10-19T18:27:37.315Z,15.55
2017-10-19T18:30:04.698Z,15.56
2017-10-19T18:32:32.103Z,15.66
2017-10-19T18:34:59.526Z,15.66
2017-10-19T18:37:26.915Z,15.65
2017-10-19T18:39:54.339Z,15.64
2017-10-19T18:42:21.730Z,15.59
2017-10-19T18:44:49.118Z,15.59
2017-10-19T18:47:16.530Z,15.58
2017-10-19T18:49:43.919Z,15.60
2017-10-19T18:52:11.318Z,15.66
2017-10-19T18:54:38.710Z,15.79
2017-10-19T18:57:06.214Z,15.82
2017-10-19T18:59:33.613Z,15.76
2017-10-19T19:02:01.019Z,15.76
2017-10-19T19:04:28.427Z,15.75
2017-10-19T19:06:55.819Z,15.64
2017-10-19T19:09:23.219Z,15.51
2017-10-19T19:11:50.616Z,15.52
2017-10-19T19:14:18.027Z,15.39
2017-10-19T19:16:45.423Z,15.25
2017-10-19T19:19:12.829Z,15.33
2017-10-19T19:21:40.222Z,15.07
2017-10-19T19:24:07.630Z,15.11
2017-10-19T19:26:35.083Z,15.01
2017-10-19T19:29:02.543Z,15.07
2017-10-19T19:31:29.938Z,14.94
2017-10-19T19:33:57.383Z,14.89
2017-10-19T19:36:24.783Z,14.82
2017-10-19T19:38:52.237Z,14.64
2017-10-19T19:41:19.722Z,14.62
2017-10-19T19:46:15.355Z,14.55
2017-10-19T19:48:42.764Z,14.57
2017-10-19T19:51:10.266Z,14.56
2017-10-19T19:53:37.675Z,14.58
2017-10-19T19:56:05.066Z,14.47
2017-10-19T19:58:32.471Z,14.50
2017-10-19T20:00:59.867Z,14.38
2017-10-19T20:03:27.271Z,14.23
2017-10-19T20:05:54.666Z,14.06
2017-10-19T20:08:22.121Z,13.99
2017-10-19T20:10:49.512Z,13.96
2017-10-19T20:13:16.967Z,14.09
2017-10-19T20:15:44.362Z,14.11
2017-10-19T20:18:11.768Z,14.04
2017-10-19T20:20:39.166Z,14.00
2017-10-19T20:23:06.564Z,13.96
2017-10-19T20:25:33.966Z,14.05
2017-10-19T20:28:01.376Z,14.21
2017-10-19T20:30:28.779Z,14.19
2017-10-19T20:32:56.174Z,14.23
2017-10-19T20:35:23.581Z,14.23
2017-10-19T20:37:50.974Z,14.26
2017-10-19T20:40:18.376Z,14.30
2017-10-19T20:42:45.771Z,14.13
2017-10-19T20:45:13.175Z,13.95
2017-10-19T20:47:40.643Z,13.95
2017-10-19T20:50:08.054Z,13.84
2017-10-19T20:52:35.449Z,13.93
2017-10-19T20:55:02.851Z,13.87
2017-10-19T20:57:30.287Z,13.86
2017-10-19T20:59:57.687Z,13.96
2017-10-19T21:02:25.082Z,13.90
2017-10-19T21:04:52.490Z,13.85
2017-10-19T21:07:19.995Z,13.79
2017-10-19T21:09:49.026Z,13.66
2017-10-19T21:12:17.538Z,13.81
2017-10-19T21:14:44.946Z,13.83
2017-10-19T21:17:12.351Z,13.66
2017-10-19T21:19:39.834Z,13.67
2017-10-19T21:22:07.230Z,13.78
2017-10-19T21:24:34.630Z,13.79
2017-10-19T21:27:02.050Z,13.73
2017-10-19T21:29:29.462Z,13.79
2017-10-19T21:31:56.877Z,13.70
2017-10-19T21:34:24.270Z,13.79
2017-10-19T21:36:51.678Z,13.67
2017-10-19T21:39:19.083Z,13.64
2017-10-19T21:41:46.495Z,13.65
2017-10-19T21:44:14.000Z,13.63
2017-10-19T21:46:41.403Z,13.80
2017-10-19T21:49:08.816Z,13.86
2017-10-19T21:51:36.210Z,13.78
2017-10-19T21:54:03.727Z,13.78
2017-10-19T21:56:31.134Z,13.83
2017-10-19T21:58:58.538Z,13.83
2017-10-19T22:01:25.970Z,13.83
2017-10-19T22:03:53.351Z,13.96
2017-10-19T22:06:20.765Z,13.93
2017-10-19T22:08:48.155Z,13.96
2017-10-19T22:11:15.556Z,13.97
2017-10-19T22:13:42.955Z,13.92
2017-10-19T22:16:10.358Z,13.87
2017-10-19T22:18:37.762Z,13.77
2017-10-19T22:21:05.180Z,13.66
2017-10-19T22:23:32.580Z,13.51
2017-10-19T22:25:59.990Z,13.47
2017-10-19T22:28:27.420Z,13.44
2017-10-19T22:30:54.830Z,13.49
2017-10-19T22:33:22.249Z,13.54
2017-10-19T22:35:49.659Z,13.53
2017-10-19T22:38:17.068Z,13.48
2017-10-19T22:40:44.466Z,13.52
2017-10-19T22:43:11.889Z,13.43
2017-10-19T22:45:39.307Z,13.27
2017-10-19T22:48:06.716Z,13.37
2017-10-19T22:50:34.145Z,13.39
2017-10-19T22:53:01.510Z,13.41
2017-10-19T22:55:28.919Z,13.39
2017-10-19T22:57:56.323Z,13.49
2017-10-19T23:00:23.723Z,13.58
2017-10-19T23:02:51.131Z,13.59
2017-10-19T23:05:18.523Z,13.44
2017-10-19T23:07:45.937Z,13.30
2017-10-19T23:10:13.403Z,13.36
2017-10-19T23:12:40.811Z,13.39
2017-10-19T23:15:08.316Z,13.37
2017-10-19T23:17:35.722Z,13.26
2017-10-19T23:20:03.134Z,13.06
2017-10-19T23:22:30.534Z,13.12
2017-10-19T23:24:57.924Z,13.05
2017-10-19T23:27:25.314Z,13.12
2017-10-19T23:29:52.730Z,12.95
2017-10-19T23:32:20.120Z,12.84
2017-10-19T23:34:47.534Z,12.66
2017-10-19T23:37:14.931Z,12.69
2017-10-19T23:39:42.338Z,12.69
2017-10-19T23:42:09.841Z,12.71
2017-10-19T23:44:37.250Z,12.76
2017-10-19T23:47:04.632Z,12.96
2017-10-19T23:49:32.031Z,13.04
2017-10-19T23:51:59.429Z,13.18
2017-10-19T23:54:26.828Z,13.14
2017-10-19T23:56:54.221Z,13.11
2017-10-19T23:59:21.636Z,12.88
